Time;durP1;ratioP1;P1;durP2;ratioP2;P2;SDS_P1;SDS_P2;PMS_P1;PMS_P2;Temp;Humidity;BMP_temperature;BMP_pressure;BME280_temperature;BME280_humidity;BME280_pressure;Samples;Min_cycle;Max_cycle;Signal;HPM_P1;HPM_P2
2020/12/18 00:01:36;;;;;;;8.30;5.47;;;8.60;99.90;;;;;;5028973;28;20017;-42
2020/12/18 00:04:01;;;;;;;8.77;5.90;;;8.60;99.90;;;;;;5030242;28;20558;-42
2020/12/18 00:06:34;;;;;;;10.38;6.63;;;8.50;99.90;;;;;;5028953;28;20363;-43
2020/12/18 00:09:00;;;;;;;12.15;6.25;;;8.60;99.90;;;;;;5029691;28;20033;-44
2020/12/18 00:11:27;;;;;;;8.23;5.80;;;8.60;99.90;;;;;;5030264;28;20044;-42
2020/12/18 00:13:53;;;;;;;12.80;6.10;;;8.60;99.90;;;;;;5029454;28;20108;-42
2020/12/18 00:16:20;;;;;;;9.32;5.57;;;8.60;99.90;;;;;;5029102;28;20209;-41
2020/12/18 00:18:46;;;;;;;7.63;4.75;;;8.60;99.90;;;;;;5028394;28;20013;-42
2020/12/18 00:21:17;;;;;;;11.15;4.93;;;8.70;99.90;;;;;;5029565;28;20113;-42
2020/12/18 00:23:42;;;;;;;9.57;5.28;;;8.60;99.90;;;;;;5029102;28;20029;-43
2020/12/18 00:26:08;;;;;;;10.38;5.25;;;8.60;99.90;;;;;;5028581;28;20044;-42
2020/12/18 00:28:33;;;;;;;8.98;4.93;;;8.60;99.90;;;;;;5029486;28;20025;-41
2020/12/18 00:30:59;;;;;;;7.72;4.97;;;8.70;99.90;;;;;;5029660;28;20021;-43
2020/12/18 00:33:24;;;;;;;7.25;4.90;;;8.70;99.90;;;;;;5029189;28;20025;-42
2020/12/18 00:35:50;;;;;;;7.25;4.90;;;8.70;99.90;;;;;;5028804;28;20116;-42
2020/12/18 00:38:15;;;;;;;11.27;4.78;;;8.60;99.90;;;;;;5029534;28;20071;-43
2020/12/18 00:40:41;;;;;;;8.00;5.03;;;8.60;99.90;;;;;;5028377;28;20179;-42
2020/12/18 00:43:06;;;;;;;13.55;4.70;;;8.60;99.90;;;;;;5028971;28;20025;-42
2020/12/18 00:45:32;;;;;;;11.18;5.20;;;8.60;99.90;;;;;;5028389;28;20516;-41
2020/12/18 00:47:58;;;;;;;11.13;5.75;;;8.50;99.90;;;;;;5029259;28;20041;-42
2020/12/18 00:50:23;;;;;;;7.38;5.13;;;8.50;99.90;;;;;;5031192;28;20034;-41
2020/12/18 00:52:49;;;;;;;9.57;5.45;;;8.40;99.90;;;;;;5027795;28;20060;-41
2020/12/18 00:55:15;;;;;;;7.60;5.65;;;8.40;99.90;;;;;;5028581;28;20495;-41
2020/12/18 00:57:40;;;;;;;9.98;5.35;;;8.30;99.90;;;;;;5028965;28;20273;-42
2020/12/18 01:00:07;;;;;;;9.65;5.53;;;8.30;99.90;;;;;;5028428;28;20029;-42
2020/12/18 01:02:33;;;;;;;10.75;6.38;;;8.30;99.90;;;;;;5027669;28;20099;-42
2020/12/18 01:04:58;;;;;;;10.85;6.18;;;8.30;99.90;;;;;;5028689;28;20053;-43
2020/12/18 01:07:24;;;;;;;10.38;5.78;;;8.20;99.90;;;;;;5028477;28;20547;-43
2020/12/18 01:09:51;;;;;;;10.90;6.22;;;8.30;99.90;;;;;;5028253;28;20109;-43
2020/12/18 01:12:16;;;;;;;9.43;5.93;;;8.20;99.90;;;;;;5028771;28;20037;-42
2020/12/18 01:14:42;;;;;;;11.13;6.13;;;8.20;99.90;;;;;;5026762;28;20029;-45
2020/12/18 01:17:08;;;;;;;13.05;6.22;;;8.20;99.90;;;;;;5028767;28;20099;-44
2020/12/18 01:19:36;;;;;;;10.32;6.43;;;8.20;99.90;;;;;;5028410;28;20474;-41
2020/12/18 01:22:02;;;;;;;13.98;6.80;;;8.20;99.90;;;;;;5028400;28;20248;-41
2020/12/18 01:24:28;;;;;;;10.48;7.30;;;8.20;99.90;;;;;;5027755;28;20382;-41
2020/12/18 01:26:53;;;;;;;12.00;6.75;;;8.20;99.90;;;;;;5028419;28;20026;-41
2020/12/18 01:29:19;;;;;;;13.23;7.35;;;8.20;99.90;;;;;;5028322;28;20021;-43
2020/12/18 01:31:44;;;;;;;11.93;7.20;;;8.10;99.90;;;;;;5027884;28;20104;-42
2020/12/18 01:34:10;;;;;;;14.95;6.97;;;8.20;99.90;;;;;;5028800;28;20030;-42
2020/12/18 01:36:35;;;;;;;11.63;6.78;;;8.10;99.90;;;;;;5027477;28;20057;-43
2020/12/18 01:39:01;;;;;;;8.95;6.30;;;8.20;99.90;;;;;;5027748;28;20018;-42
2020/12/18 01:41:27;;;;;;;13.48;6.22;;;8.20;99.90;;;;;;5026400;28;20025;-42
2020/12/18 01:43:52;;;;;;;10.40;6.63;;;8.10;99.90;;;;;;5027371;28;20034;-41
2020/12/18 01:46:20;;;;;;;14.50;7.10;;;8.20;99.90;;;;;;5027213;28;20434;-42
2020/12/18 01:48:46;;;;;;;10.98;6.53;;;8.10;99.90;;;;;;5027547;28;20505;-42
2020/12/18 01:51:13;;;;;;;9.35;6.38;;;8.00;99.90;;;;;;5028556;28;20029;-41
2020/12/18 01:53:43;;;;;;;9.63;6.30;;;8.10;99.90;;;;;;5039289;28;20104;-41
2020/12/18 01:56:08;;;;;;;9.82;6.03;;;8.10;99.90;;;;;;5027118;28;20017;-42
2020/12/18 01:58:37;;;;;;;10.60;6.25;;;8.00;99.90;;;;;;5035382;28;20496;-42
2020/12/18 02:01:05;;;;;;;12.20;6.97;;;8.00;99.90;;;;;;5047534;28;20025;-41
2020/12/18 02:03:31;;;;;;;8.82;5.97;;;8.00;99.90;;;;;;5047080;28;20017;-42
2020/12/18 02:06:02;;;;;;;7.80;5.70;;;8.00;99.90;;;;;;5047007;28;20032;-41
2020/12/18 02:08:29;;;;;;;10.23;6.32;;;8.00;99.90;;;;;;5047517;28;20040;-42
2020/12/18 02:10:58;;;;;;;9.40;6.47;;;7.90;99.90;;;;;;5047450;28;20106;-43
2020/12/18 02:13:24;;;;;;;9.35;6.03;;;7.90;99.90;;;;;;5047121;28;20900;-40
2020/12/18 02:15:51;;;;;;;8.25;5.88;;;7.90;99.90;;;;;;5045097;28;20494;-41
2020/12/18 02:18:21;;;;;;;12.50;6.72;;;7.80;99.90;;;;;;5046920;28;20459;-40
2020/12/18 02:20:47;;;;;;;11.95;6.47;;;7.80;99.90;;;;;;5044938;28;20021;-42
2020/12/18 02:23:13;;;;;;;11.80;5.82;;;7.70;99.90;;;;;;5046635;28;20032;-41
2020/12/18 02:25:40;;;;;;;11.30;6.53;;;7.70;99.90;;;;;;5046122;28;20151;-42
2020/12/18 02:28:11;;;;;;;11.27;6.10;;;7.70;99.90;;;;;;5047011;28;20020;-43
2020/12/18 02:30:37;;;;;;;;;;;7.70;99.90;;;;;;5047509;28;20127;-48
2020/12/18 02:33:04;;;;;;;15.48;6.15;;;7.60;99.90;;;;;;5044841;28;19915;-47
2020/12/18 02:35:30;;;;;;;9.98;6.10;;;7.60;99.90;;;;;;5046273;28;20090;-47
2020/12/18 02:37:56;;;;;;;13.02;6.82;;;7.60;99.90;;;;;;5047089;28;20071;-47
2020/12/18 02:40:21;;;;;;;12.45;6.45;;;7.60;99.90;;;;;;5046854;28;20122;-46
2020/12/18 02:42:47;;;;;;;8.65;5.95;;;7.70;99.90;;;;;;5046073;28;20025;-47
2020/12/18 02:45:12;;;;;;;9.73;6.00;;;7.70;99.90;;;;;;5046353;28;20540;-47
2020/12/18 02:47:38;;;;;;;11.43;6.03;;;7.70;99.90;;;;;;5046603;28;20087;-47
2020/12/18 02:50:03;;;;;;;11.18;6.05;;;7.60;99.90;;;;;;5046687;28;20037;-47
2020/12/18 02:52:29;;;;;;;13.60;6.38;;;7.60;99.90;;;;;;5046685;28;20033;-47
2020/12/18 02:54:54;;;;;;;11.25;5.80;;;7.50;99.90;;;;;;5027425;28;20193;-47
2020/12/18 02:57:20;;;;;;;10.57;6.05;;;7.50;99.90;;;;;;5026402;28;20100;-47
2020/12/18 02:59:45;;;;;;;14.98;6.05;;;7.50;99.90;;;;;;5026462;28;20438;-46
2020/12/18 03:02:11;;;;;;;11.55;5.93;;;7.40;99.90;;;;;;5026503;28;20371;-47
2020/12/18 03:04:36;;;;;;;8.57;5.32;;;7.50;99.90;;;;;;5024660;28;20557;-47
2020/12/18 03:07:02;;;;;;;7.22;5.65;;;7.50;99.90;;;;;;5026946;28;20029;-47
2020/12/18 03:09:28;;;;;;;12.27;5.60;;;7.40;99.90;;;;;;5026533;28;20034;-45
2020/12/18 03:11:53;;;;;;;13.05;5.97;;;7.40;99.90;;;;;;5026854;28;20026;-46
2020/12/18 03:14:19;;;;;;;8.48;5.85;;;7.40;99.90;;;;;;5026736;28;20037;-46
2020/12/18 03:16:44;;;;;;;9.52;6.05;;;7.40;99.90;;;;;;5025650;28;20245;-46
2020/12/18 03:19:10;;;;;;;10.23;5.50;;;7.40;99.90;;;;;;5026335;28;20030;-47
2020/12/18 03:21:35;;;;;;;12.73;6.03;;;7.40;99.90;;;;;;5026412;28;20406;-47
2020/12/18 03:24:01;;;;;;;12.05;5.70;;;7.30;99.90;;;;;;5027232;28;20059;-46
2020/12/18 03:26:26;;;;;;;8.18;5.40;;;7.30;99.90;;;;;;5026299;28;20092;-47
2020/12/18 03:28:52;;;;;;;9.80;5.50;;;7.30;99.90;;;;;;5026828;28;20043;-48
2020/12/18 03:31:18;;;;;;;13.98;5.78;;;7.20;99.90;;;;;;5026386;28;20071;-47
2020/12/18 03:33:43;;;;;;;9.48;5.38;;;7.20;99.90;;;;;;5025915;28;20045;-47
2020/12/18 03:36:09;;;;;;;9.45;5.53;;;7.20;99.90;;;;;;5025895;28;20034;-47
2020/12/18 03:38:35;;;;;;;9.05;5.57;;;7.20;99.90;;;;;;5026220;28;20022;-47
2020/12/18 03:41:04;;;;;;;10.60;5.95;;;7.20;99.90;;;;;;5026571;28;20029;-47
2020/12/18 03:43:30;;;;;;;17.65;5.20;;;7.20;99.90;;;;;;5026815;28;20505;-47
2020/12/18 03:45:55;;;;;;;12.18;5.72;;;7.20;99.90;;;;;;5025926;28;20025;-46
2020/12/18 03:48:21;;;;;;;9.20;5.43;;;7.20;99.90;;;;;;5024561;28;20080;-47
2020/12/18 03:50:46;;;;;;;18.40;6.13;;;7.20;99.90;;;;;;5025978;28;20048;-47
2020/12/18 03:53:12;;;;;;;9.82;5.68;;;7.10;99.90;;;;;;5028562;28;20191;-47
2020/12/18 03:55:37;;;;;;;9.07;5.13;;;7.00;99.90;;;;;;5032177;28;20075;-45
2020/12/18 03:58:03;;;;;;;10.98;5.63;;;6.90;99.90;;;;;;5029143;28;20542;-47
2020/12/18 04:00:28;;;;;;;8.75;6.05;;;6.90;99.90;;;;;;5029964;28;20022;-46
2020/12/18 04:02:54;;;;;;;8.88;5.78;;;7.00;99.90;;;;;;5029976;28;20037;-47
2020/12/18 04:05:19;;;;;;;9.48;5.80;;;6.90;99.90;;;;;;5029815;28;20052;-47
2020/12/18 04:07:45;;;;;;;16.45;6.35;;;6.90;99.90;;;;;;5029962;28;20045;-47
2020/12/18 04:10:10;;;;;;;14.35;6.22;;;6.90;99.90;;;;;;5030070;28;20378;-47
2020/12/18 04:12:36;;;;;;;10.63;5.25;;;6.90;99.90;;;;;;5029268;28;20021;-46
2020/12/18 04:15:01;;;;;;;14.15;6.13;;;7.00;99.90;;;;;;5029181;28;20487;-48
2020/12/18 04:17:27;;;;;;;9.90;6.38;;;6.90;99.90;;;;;;5029126;28;20021;-47
2020/12/18 04:19:53;;;;;;;13.63;5.95;;;6.80;99.90;;;;;;5029269;28;20033;-47
2020/12/18 04:22:19;;;;;;;15.15;6.03;;;6.80;99.90;;;;;;5029205;28;20022;-47
2020/12/18 04:24:44;;;;;;;7.97;5.05;;;6.80;99.90;;;;;;5028468;28;20033;-46
2020/12/18 04:27:09;;;;;;;11.73;6.60;;;6.70;99.90;;;;;;5028049;28;20033;-46
2020/12/18 04:29:35;;;;;;;10.68;5.60;;;6.70;99.90;;;;;;5028640;28;20040;-47
2020/12/18 04:32:00;;;;;;;11.88;5.75;;;6.70;99.90;;;;;;5027828;28;20029;-47
2020/12/18 04:34:26;;;;;;;11.52;5.82;;;6.60;99.90;;;;;;5028913;28;20056;-49
2020/12/18 04:36:51;;;;;;;12.25;5.40;;;6.60;99.90;;;;;;5029194;28;20071;-46
2020/12/18 04:39:17;;;;;;;10.27;5.95;;;6.60;99.90;;;;;;5029423;28;20026;-45
2020/12/18 04:41:42;;;;;;;14.32;6.03;;;6.50;99.90;;;;;;5028988;28;20045;-47
2020/12/18 04:44:09;;;;;;;11.13;6.22;;;6.50;99.90;;;;;;5029400;28;20055;-47
2020/12/18 04:46:36;;;;;;;14.80;6.40;;;6.50;99.90;;;;;;5027197;28;20112;-47
2020/12/18 04:49:03;;;;;;;23.20;6.47;;;6.50;99.90;;;;;;5028671;28;20045;-46
2020/12/18 04:51:28;;;;;;;14.73;6.55;;;6.40;99.90;;;;;;5029170;28;20032;-46
2020/12/18 04:53:55;;;;;;;11.55;6.45;;;6.50;99.90;;;;;;5028542;28;20033;-47
2020/12/18 04:56:26;;;;;;;14.10;6.53;;;6.50;99.90;;;;;;5032701;28;20534;-48
2020/12/18 04:58:52;;;;;;;;;;;6.50;99.90;;;;;;5028721;28;20041;-47
2020/12/18 05:01:19;;;;;;;11.82;6.20;;;6.50;99.90;;;;;;5028688;28;20068;-47
2020/12/18 05:03:45;;;;;;;11.70;5.65;;;6.50;99.90;;;;;;5028580;28;20100;-47
2020/12/18 05:06:11;;;;;;;13.65;6.10;;;6.40;99.90;;;;;;5027761;28;20479;-48
2020/12/18 05:08:37;;;;;;;11.13;5.57;;;6.40;99.90;;;;;;5028587;28;20201;-48
2020/12/18 05:11:15;;;;;;;12.68;5.85;;;6.40;99.90;;;;;;5027260;28;20025;-48
2020/12/18 05:13:41;;;;;;;8.98;5.40;;;6.40;99.90;;;;;;5026988;28;20482;-47
2020/12/18 05:16:07;;;;;;;9.25;5.65;;;6.40;99.90;;;;;;5028255;28;20071;-47
2020/12/18 05:18:32;;;;;;;9.63;5.75;;;6.40;99.90;;;;;;5028354;28;20375;-48
2020/12/18 05:20:59;;;;;;;14.43;6.20;;;6.40;99.90;;;;;;5028482;28;20553;-47
2020/12/18 05:23:24;;;;;;;12.20;5.82;;;6.50;99.90;;;;;;5028674;28;20082;-47
2020/12/18 05:25:50;;;;;;;16.77;5.57;;;6.50;99.90;;;;;;5027780;28;20025;-48
2020/12/18 05:28:19;;;;;;;17.00;6.03;;;6.40;99.90;;;;;;5028313;28;20036;-47
2020/12/18 05:30:46;;;;;;;14.45;5.60;;;6.40;99.90;;;;;;5028189;28;20033;-49
2020/12/18 05:33:13;;;;;;;9.63;5.20;;;6.40;99.90;;;;;;5026646;28;20029;-47
2020/12/18 05:35:39;;;;;;;10.82;6.00;;;6.40;99.90;;;;;;5027210;28;20032;-48
2020/12/18 05:38:04;;;;;;;8.68;5.00;;;6.40;99.90;;;;;;5028186;28;20025;-47
2020/12/18 05:40:30;;;;;;;10.80;5.30;;;6.40;99.90;;;;;;5028153;28;20037;-47
2020/12/18 05:42:55;;;;;;;14.65;5.20;;;6.40;99.90;;;;;;5028546;28;20481;-47
2020/12/18 05:45:22;;;;;;;12.68;5.93;;;6.30;99.90;;;;;;5027528;28;20048;-48
2020/12/18 05:47:52;;;;;;;12.93;6.43;;;6.40;99.90;;;;;;5027192;28;20029;-47
2020/12/18 05:50:18;;;;;;;10.38;5.75;;;6.40;99.90;;;;;;5027641;28;20382;-47
2020/12/18 05:53:00;;;;;;;10.20;5.40;;;6.40;99.90;;;;;;5027444;28;20124;-48
2020/12/18 05:55:26;;;;;;;9.18;4.93;;;6.40;99.90;;;;;;5026926;28;20487;-47
2020/12/18 05:57:54;;;;;;;8.20;5.50;;;6.40;99.90;;;;;;5030755;28;20140;-48
2020/12/18 06:00:22;;;;;;;9.95;5.53;;;6.50;99.90;;;;;;5028085;28;20029;-48
2020/12/18 06:03:00;;;;;;;7.05;4.72;;;6.50;99.90;;;;;;5027018;28;20073;-47
2020/12/18 06:05:26;;;;;;;9.60;5.03;;;6.50;99.90;;;;;;5026945;28;20037;-47
2020/12/18 06:07:53;;;;;;;11.77;5.78;;;6.50;99.90;;;;;;5027514;28;20037;-47
2020/12/18 06:10:22;;;;;;;16.33;5.40;;;6.50;99.90;;;;;;5027691;28;20025;-47
2020/12/18 06:12:48;;;;;;;8.15;5.78;;;6.50;99.90;;;;;;5027529;28;20021;-47
2020/12/18 06:15:15;;;;;;;8.75;5.45;;;6.40;99.90;;;;;;5026865;28;20092;-46
2020/12/18 06:17:44;;;;;;;12.25;5.32;;;6.40;99.90;;;;;;5026757;28;20052;-47
2020/12/18 06:20:14;;;;;;;9.57;5.35;;;6.50;99.90;;;;;;5027465;28;20438;-47
2020/12/18 06:22:53;;;;;;;9.73;5.38;;;6.60;99.90;;;;;;5027204;28;20433;-49
2020/12/18 06:25:18;;;;;;;9.38;5.13;;;6.60;99.90;;;;;;5026544;28;20395;-46
2020/12/18 06:27:44;;;;;;;10.15;4.85;;;6.60;99.90;;;;;;5027282;28;20029;-49
2020/12/18 06:30:09;;;;;;;7.78;4.82;;;6.50;99.90;;;;;;5026999;28;20032;-48
2020/12/18 06:32:36;;;;;;;8.98;4.70;;;6.50;99.90;;;;;;5026628;28;20124;-48
2020/12/18 06:35:31;;;;;;;7.25;4.57;;;6.50;99.90;;;;;;5025185;28;20021;-47
2020/12/18 06:37:58;;;;;;;15.93;6.40;;;6.50;99.90;;;;;;5027173;28;20491;-47
2020/12/18 06:40:30;;;;;;;9.20;4.60;;;6.50;99.90;;;;;;5035439;28;20119;-50
2020/12/18 06:42:56;;;;;;;13.40;5.20;;;6.50;99.90;;;;;;5046614;28;20053;-48
2020/12/18 06:45:22;;;;;;;9.82;5.50;;;6.40;99.90;;;;;;5045892;28;20039;-50
2020/12/18 06:47:48;;;;;;;7.00;4.63;;;6.40;99.90;;;;;;5046215;28;20044;-48
2020/12/18 06:50:16;;;;;;;10.98;5.07;;;6.40;99.90;;;;;;5046875;28;20071;-47
2020/12/18 06:52:57;;;;;;;10.80;4.88;;;6.40;99.90;;;;;;5046568;28;20044;-48
2020/12/18 06:55:26;;;;;;;13.52;4.97;;;6.40;99.90;;;;;;5046321;28;20035;-48
2020/12/18 06:58:09;;;;;;;12.52;4.95;;;6.40;99.90;;;;;;5044409;28;20036;-47
2020/12/18 07:00:41;;;;;;;15.63;4.57;;;6.40;99.90;;;;;;5034621;28;20017;-49
2020/12/18 07:03:07;;;;;;;15.23;5.13;;;6.30;99.90;;;;;;5035262;28;20402;-47
2020/12/18 07:05:35;;;;;;;9.88;4.97;;;6.40;99.90;;;;;;5035063;28;20029;-47
2020/12/18 07:08:07;;;;;;;12.50;4.72;;;6.40;99.90;;;;;;5034680;28;20532;-47
2020/12/18 07:10:42;;;;;;;8.70;4.40;;;6.40;99.90;;;;;;5039597;28;20029;-51
2020/12/18 07:13:12;;;;;;;8.82;4.82;;;6.30;99.90;;;;;;5038944;28;20291;-49
2020/12/18 07:15:46;;;;;;;17.00;4.90;;;6.30;99.90;;;;;;5030439;28;20026;-46
2020/12/18 07:18:23;;;;;;;8.23;5.22;;;6.30;99.90;;;;;;5026148;28;20026;-48
2020/12/18 07:20:51;;;;;;;10.63;5.05;;;6.30;99.90;;;;;;5026622;28;20083;-48
2020/12/18 07:23:18;;;;;;;15.27;6.47;;;6.30;99.90;;;;;;5026333;28;20044;-48
2020/12/18 07:25:44;;;;;;;7.55;5.07;;;6.30;99.90;;;;;;5034957;28;20120;-47
2020/12/18 07:28:09;;;;;;;9.20;5.10;;;6.30;99.90;;;;;;5037658;28;20530;-43
2020/12/18 07:30:40;;;;;;;9.13;4.75;;;6.30;99.90;;;;;;5039500;28;20494;-42
2020/12/18 07:33:07;;;;;;;8.15;4.47;;;6.30;99.90;;;;;;5038275;28;20491;-43
2020/12/18 07:35:41;;;;;;;9.60;4.75;;;6.30;99.90;;;;;;5041257;28;20150;-43
2020/12/18 07:38:12;;;;;;;10.57;5.28;;;6.30;99.90;;;;;;5039337;28;20072;-43
2020/12/18 07:40:40;;;;;;;9.30;4.82;;;6.30;99.90;;;;;;5039177;28;20152;-42
2020/12/18 07:43:10;;;;;;;6.70;4.45;;;6.30;99.90;;;;;;5035885;28;20063;-42
2020/12/18 07:45:40;;;;;;;10.60;4.73;;;6.30;99.90;;;;;;5036207;28;20021;-43
2020/12/18 07:48:15;;;;;;;9.80;4.90;;;6.30;99.90;;;;;;5040279;28;20028;-42
2020/12/18 07:50:42;;;;;;;8.90;4.95;;;6.40;99.90;;;;;;5038515;28;20033;-41
2020/12/18 07:53:11;;;;;;;6.47;3.97;;;6.40;99.90;;;;;;5040407;28;20017;-43
2020/12/18 07:55:37;;;;;;;11.25;4.32;;;6.40;99.90;;;;;;5031781;28;20033;-42
2020/12/18 07:58:03;;;;;;;7.72;4.07;;;6.40;99.90;;;;;;5029894;28;20111;-42
2020/12/18 08:00:28;;;;;;;6.47;4.30;;;6.40;99.90;;;;;;5029916;28;20026;-42
2020/12/18 08:02:54;;;;;;;7.55;4.07;;;6.50;99.90;;;;;;5029449;28;20052;-41
2020/12/18 08:05:23;;;;;;;7.55;3.85;;;6.60;99.90;;;;;;5028973;28;20076;-42
2020/12/18 08:07:50;;;;;;;10.40;3.78;;;6.60;99.90;;;;;;5029508;28;20040;-42
2020/12/18 08:10:17;;;;;;;8.13;4.18;;;6.60;99.90;;;;;;5029485;28;20028;-41
2020/12/18 08:12:42;;;;;;;5.82;3.35;;;6.60;99.90;;;;;;5028946;28;20041;-43
2020/12/18 08:15:13;;;;;;;7.95;3.63;;;6.60;99.90;;;;;;5029273;28;20021;-43
2020/12/18 08:17:39;;;;;;;6.68;4.13;;;6.60;99.90;;;;;;5029598;28;20037;-41
2020/12/18 08:20:06;;;;;;;9.15;4.10;;;6.70;99.90;;;;;;5029703;28;20060;-43
2020/12/18 08:22:38;;;;;;;7.72;3.78;;;6.70;99.90;;;;;;5029485;28;20033;-42
2020/12/18 08:25:06;;;;;;;6.25;3.20;;;6.90;99.90;;;;;;5028742;28;20053;-42
2020/12/18 08:27:37;;;;;;;7.97;4.13;;;6.80;99.90;;;;;;5029469;28;20042;-43
2020/12/18 08:30:04;;;;;;;6.53;3.97;;;6.80;99.90;;;;;;5029493;28;20029;-43
2020/12/18 08:32:33;;;;;;;8.82;3.92;;;6.80;99.90;;;;;;5029322;28;20443;-44
2020/12/18 08:35:00;;;;;;;9.20;4.22;;;6.80;99.90;;;;;;5028109;28;20045;-41
2020/12/18 08:37:26;;;;;;;8.02;4.28;;;6.80;99.90;;;;;;5029672;28;20025;-43
2020/12/18 08:39:51;;;;;;;9.10;4.88;;;6.80;99.90;;;;;;5028262;28;20475;-43
2020/12/18 08:42:17;;;;;;;11.55;4.60;;;6.90;99.90;;;;;;5029621;28;20143;-44
2020/12/18 08:44:44;;;;;;;11.23;4.65;;;6.90;99.90;;;;;;5028391;28;20629;-43
2020/12/18 08:47:22;;;;;;;10.77;4.88;;;6.90;99.90;;;;;;5029213;28;20092;-45
2020/12/18 08:49:49;;;;;;;8.23;4.25;;;6.80;99.90;;;;;;5028500;28;20100;-42
2020/12/18 08:52:22;;;;;;;8.15;4.53;;;6.80;99.90;;;;;;5029073;28;20048;-42
2020/12/18 08:54:47;;;;;;;7.35;4.93;;;6.90;99.90;;;;;;5028136;28;20487;-43
2020/12/18 08:57:30;;;;;;;8.95;4.18;;;6.80;99.90;;;;;;5028559;28;20022;-43
2020/12/18 09:00:15;;;;;;;9.77;3.65;;;6.90;99.90;;;;;;5026952;28;20390;-44
2020/12/18 09:02:44;;;;;;;12.77;4.00;;;6.80;99.90;;;;;;5029613;28;20033;-43
2020/12/18 09:05:14;;;;;;;5.57;4.00;;;6.80;99.90;;;;;;5030371;28;20072;-44
2020/12/18 09:07:41;;;;;;;7.95;4.15;;;6.90;99.90;;;;;;5037253;28;20528;-45
2020/12/18 09:10:08;;;;;;;10.93;4.95;;;6.90;99.90;;;;;;5040089;28;20029;-44
2020/12/18 09:12:42;;;;;;;8.82;4.55;;;6.90;99.90;;;;;;5046867;28;20032;-45
2020/12/18 09:15:22;;;;;;;7.78;4.40;;;7.00;99.90;;;;;;5047310;28;20100;-43
2020/12/18 09:18:06;;;;;;;7.15;4.40;;;7.00;99.90;;;;;;5047794;28;20363;-45
2020/12/18 09:20:39;;;;;;;7.90;4.05;;;7.10;99.90;;;;;;5042924;28;20036;-43
2020/12/18 09:23:08;;;;;;;8.95;4.65;;;7.10;99.90;;;;;;5028291;28;20029;-44
2020/12/18 09:25:35;;;;;;;7.68;4.07;;;7.20;99.90;;;;;;5028251;28;20060;-44
2020/12/18 09:28:01;;;;;;;8.30;3.75;;;7.20;99.90;;;;;;5044190;28;20112;-44
2020/12/18 09:30:30;;;;;;;7.03;4.07;;;7.20;99.90;;;;;;5027624;28;20121;-44
2020/12/18 09:33:17;;;;;;;10.98;4.88;;;7.30;99.90;;;;;;5027095;28;20490;-41
2020/12/18 09:35:44;;;;;;;10.35;4.10;;;7.30;99.90;;;;;;5027410;28;20120;-41
2020/12/18 09:38:11;;;;;;;7.93;3.42;;;7.40;99.90;;;;;;5027846;28;20022;-43
2020/12/18 09:40:37;;;;;;;8.85;4.47;;;7.40;99.90;;;;;;5027976;28;20219;-44
2020/12/18 09:43:03;;;;;;;7.60;4.00;;;7.40;99.90;;;;;;5028240;28;20026;-43
2020/12/18 09:45:29;;;;;;;10.07;3.95;;;7.50;99.90;;;;;;5027380;28;20044;-42
2020/12/18 09:47:55;;;;;;;9.50;3.92;;;7.50;99.90;;;;;;5027498;28;20256;-43
2020/12/18 09:50:20;;;;;;;5.80;3.55;;;7.50;99.90;;;;;;5027306;28;20030;-46
2020/12/18 09:52:46;;;;;;;10.32;4.00;;;7.60;99.90;;;;;;5027292;28;20032;-43
2020/12/18 09:55:13;;;;;;;5.45;3.70;;;7.60;99.90;;;;;;5026882;28;20036;-44
2020/12/18 09:57:38;;;;;;;7.57;3.75;;;7.70;99.90;;;;;;5027928;28;20028;-43
2020/12/18 10:00:06;;;;;;;5.90;3.65;;;7.70;99.90;;;;;;5027985;28;20132;-42
2020/12/18 10:02:31;;;;;;;6.20;4.05;;;7.80;99.90;;;;;;5029050;28;20449;-43
2020/12/18 10:04:57;;;;;;;6.65;3.40;;;7.90;99.90;;;;;;5043850;28;20086;-42
2020/12/18 10:07:23;;;;;;;10.32;3.70;;;8.00;99.90;;;;;;5047510;28;20025;-43
2020/12/18 10:09:48;;;;;;;6.38;3.40;;;8.10;99.90;;;;;;5047277;28;20048;-43
2020/12/18 10:12:14;;;;;;;5.47;2.85;;;8.30;99.90;;;;;;5047752;28;20025;-43
2020/12/18 10:14:41;;;;;;;8.55;3.05;;;8.40;99.90;;;;;;5046016;28;20067;-45
2020/12/18 10:17:06;;;;;;;9.32;4.05;;;8.40;99.90;;;;;;5047166;28;20048;-43
2020/12/18 10:19:34;;;;;;;7.38;3.28;;;8.70;99.90;;;;;;5047079;28;20064;-42
2020/12/18 10:22:00;;;;;;;9.90;4.05;;;8.80;99.90;;;;;;5034976;28;20083;-42
2020/12/18 10:24:26;;;;;;;7.18;3.75;;;8.90;99.90;;;;;;5046168;28;20029;-42
2020/12/18 10:26:52;;;;;;;11.00;3.35;;;9.00;99.90;;;;;;5046360;28;20128;-43
2020/12/18 10:29:17;;;;;;;7.38;3.60;;;9.10;99.90;;;;;;5032714;28;20132;-44
2020/12/18 10:31:42;;;;;;;11.30;3.50;;;9.30;99.90;;;;;;5027278;28;20164;-43
2020/12/18 10:34:08;;;;;;;11.30;3.60;;;9.40;99.90;;;;;;5026806;28;20040;-43
2020/12/18 10:36:33;;;;;;;9.70;4.18;;;9.50;99.90;;;;;;5025148;28;20021;-42
2020/12/18 10:39:00;;;;;;;12.25;4.30;;;9.70;99.90;;;;;;5027459;28;20044;-44
2020/12/18 10:41:25;;;;;;;13.65;3.85;;;9.80;99.90;;;;;;5027908;28;20470;-44
2020/12/18 10:43:51;;;;;;;4.97;2.97;;;10.20;99.90;;;;;;5027154;28;20055;-42
2020/12/18 10:46:16;;;;;;;7.95;3.42;;;10.40;99.90;;;;;;5025794;28;20513;-42
2020/12/18 10:48:42;;;;;;;9.07;3.70;;;10.60;99.90;;;;;;5026040;28;20033;-44
2020/12/18 10:51:07;;;;;;;6.75;3.35;;;10.90;99.90;;;;;;5026878;28;20109;-42
2020/12/18 10:53:33;;;;;;;7.50;3.47;;;11.50;99.90;;;;;;5026604;28;20029;-44
2020/12/18 10:56:00;;;;;;;5.35;3.15;;;11.80;99.90;;;;;;5024636;28;20095;-43
2020/12/18 10:58:26;;;;;;;5.88;2.95;;;12.30;99.90;;;;;;5025039;28;20079;-46
2020/12/18 11:00:51;;;;;;;11.23;4.15;;;12.50;99.90;;;;;;5027157;28;20022;-43
2020/12/18 11:03:17;;;;;;;6.45;3.35;;;12.40;99.90;;;;;;5026512;28;20025;-44
2020/12/18 11:05:42;;;;;;;6.82;3.53;;;12.60;99.90;;;;;;5023206;28;20112;-45
2020/12/18 11:08:08;;;;;;;6.88;3.28;;;13.30;99.90;;;;;;5026714;28;20199;-47
2020/12/18 11:10:34;;;;;;;4.53;2.90;;;13.70;97.70;;;;;;5026371;28;20037;-43
2020/12/18 11:13:01;;;;;;;6.32;3.50;;;13.90;96.90;;;;;;5026821;28;20040;-44
2020/12/18 11:15:27;;;;;;;5.63;3.35;;;12.90;98.50;;;;;;5026390;28;20394;-44
2020/12/18 11:17:52;;;;;;;6.30;3.88;;;12.70;99.10;;;;;;5026475;28;20037;-44
2020/12/18 11:20:18;;;;;;;10.60;4.10;;;12.50;99.90;;;;;;5026376;28;20057;-44
2020/12/18 11:22:43;;;;;;;7.93;4.00;;;12.10;99.90;;;;;;5025958;28;20505;-47
2020/12/18 11:25:09;;;;;;;8.88;4.40;;;11.90;99.90;;;;;;5026114;28;20176;-44
2020/12/18 11:27:34;;;;;;;6.97;4.30;;;11.60;99.90;;;;;;5026171;28;20034;-43
2020/12/18 11:30:00;;;;;;;8.30;4.35;;;11.30;99.90;;;;;;5026655;28;20033;-46
2020/12/18 11:32:25;;;;;;;9.30;4.28;;;11.10;99.90;;;;;;5025971;28;20021;-43
2020/12/18 11:34:51;;;;;;;6.75;4.50;;;10.90;99.90;;;;;;5025753;28;20082;-45
2020/12/18 11:37:17;;;;;;;8.27;4.88;;;10.90;99.90;;;;;;5035166;28;20501;-45
2020/12/18 11:39:43;;;;;;;8.05;4.30;;;10.80;99.90;;;;;;5034516;28;20526;-42
2020/12/18 11:42:08;;;;;;;6.47;4.82;;;10.80;99.90;;;;;;5036348;28;20108;-45
2020/12/18 11:44:33;;;;;;;9.88;5.47;;;10.90;99.90;;;;;;5043830;28;20414;-43
2020/12/18 11:46:59;;;;;;;9.70;4.68;;;10.70;99.90;;;;;;5044752;28;20183;-44
2020/12/18 11:49:24;;;;;;;15.35;5.85;;;10.70;99.90;;;;;;5039163;28;20513;-42
2020/12/18 11:51:50;;;;;;;10.32;5.20;;;10.60;99.90;;;;;;5025731;28;20116;-42
2020/12/18 11:54:15;;;;;;;10.63;5.05;;;10.50;99.90;;;;;;5026131;28;20026;-42
2020/12/18 11:56:41;;;;;;;8.75;4.97;;;10.50;99.90;;;;;;5025477;28;20071;-43
2020/12/18 11:59:08;;;;;;;7.88;4.70;;;10.50;99.90;;;;;;5026406;28;20045;-44
2020/12/18 12:01:34;;;;;;;8.52;5.30;;;10.40;99.90;;;;;;5034105;28;20390;-44
2020/12/18 12:03:59;;;;;;;15.95;5.20;;;10.40;99.90;;;;;;5033757;28;20036;-43
2020/12/18 12:06:25;;;;;;;9.45;4.90;;;10.20;99.90;;;;;;5034322;28;20025;-43
2020/12/18 12:08:51;;;;;;;15.48;4.82;;;10.20;99.90;;;;;;5035714;28;20111;-41
2020/12/18 12:11:17;;;;;;;8.68;4.72;;;10.30;99.90;;;;;;5036409;28;20101;-43
2020/12/18 12:13:43;;;;;;;8.48;4.15;;;10.30;99.90;;;;;;5034100;28;20113;-45
2020/12/18 12:16:11;;;;;;;6.60;3.85;;;10.20;99.90;;;;;;5038758;28;20017;-43
2020/12/18 12:18:37;;;;;;;8.23;4.55;;;10.20;99.90;;;;;;5038452;28;20575;-42
2020/12/18 12:21:02;;;;;;;5.95;3.67;;;10.30;99.90;;;;;;5038059;28;20025;-44
2020/12/18 12:23:27;;;;;;;9.80;4.10;;;10.30;99.90;;;;;;5040252;28;20031;-43
2020/12/18 12:25:53;;;;;;;8.48;4.00;;;10.20;99.90;;;;;;5038803;28;20022;-42
2020/12/18 12:28:19;;;;;;;7.78;3.65;;;10.20;99.90;;;;;;5038007;28;20029;-43
2020/12/18 12:30:44;;;;;;;4.30;2.83;;;10.20;99.90;;;;;;5039951;28;20029;-47
2020/12/18 12:33:10;;;;;;;6.90;3.38;;;10.10;99.90;;;;;;5038811;28;20053;-43
2020/12/18 12:35:37;;;;;;;4.45;3.03;;;10.10;99.90;;;;;;5038039;28;20020;-43
2020/12/18 12:38:06;;;;;;;7.38;3.05;;;10.10;99.90;;;;;;5039804;28;20021;-47
2020/12/18 12:40:32;;;;;;;7.35;3.20;;;10.20;99.90;;;;;;5038454;28;20209;-45
2020/12/18 12:42:57;;;;;;;6.35;3.28;;;10.20;99.90;;;;;;5039483;28;20124;-45
2020/12/18 12:45:23;;;;;;;7.47;3.28;;;10.10;99.90;;;;;;5039789;28;20045;-44
2020/12/18 12:47:48;;;;;;;4.18;2.80;;;10.10;99.90;;;;;;5045351;28;20090;-44
2020/12/18 12:50:14;;;;;;;8.35;3.42;;;10.10;99.90;;;;;;5041396;28;20048;-43